Time;durP1;ratioP1;P1;durP2;ratioP2;P2;SDS_P1;SDS_P2;PMS_P1;PMS_P2;Temp;Humidity;BMP_temperature;BMP_pressure;BME280_temperature;BME280_humidity;BME280_pressure;Samples;Min_cycle;Max_cycle;Signal;HPM_P1;HPM_P2
2022/11/23 00:01:42;;;;;;;2.63;0.57;;;;;;;19.06;40.85;99510.56;16129894;19;129410;-40
2022/11/23 00:07:04;;;;;;;1.35;0.40;;;;;;;19.03;40.95;99516.66;16130550;19;129464;-41
2022/11/23 00:12:26;;;;;;;2.38;0.80;;;;;;;19.00;40.51;99517.25;16128924;19;130789;-41
2022/11/23 00:17:47;;;;;;;3.33;0.88;;;;;;;18.97;40.95;99517.81;16125785;19;129534;-43
2022/11/23 00:23:09;;;;;;;2.17;0.60;;;;;;;18.95;40.69;99515.34;16126178;19;130481;-42
2022/11/23 00:28:32;;;;;;;2.55;0.60;;;;;;;18.93;40.75;99512.00;16127100;19;129438;-42
2022/11/23 00:33:55;;;;;;;2.78;0.70;;;;;;;18.90;40.70;99515.34;16124538;19;130308;-41
2022/11/23 00:39:16;;;;;;;3.75;0.70;;;;;;;18.87;40.56;99518.66;16125993;19;130503;-44
2022/11/23 00:44:38;;;;;;;2.67;0.65;;;;;;;18.85;40.61;99515.34;16126110;19;130153;-43
2022/11/23 00:50:00;;;;;;;1.80;0.50;;;;;;;18.84;41.03;99524.78;16127408;19;130606;-42
2022/11/23 00:55:22;;;;;;;2.10;0.57;;;;;;;18.82;40.97;99519.53;16128318;19;131420;-41
2022/11/23 01:00:43;;;;;;;3.53;0.50;;;;;;;18.80;41.07;99526.47;16124269;19;129755;-43
2022/11/23 01:06:08;;;;;;;2.40;0.70;;;;;;;18.79;40.89;99522.03;16127206;19;129676;-42
2022/11/23 01:11:31;;;;;;;2.13;0.50;;;;;;;18.77;41.02;99525.06;16123452;19;130191;-41
2022/11/23 01:16:53;;;;;;;0.90;0.43;;;;;;;18.74;40.72;99529.25;16127120;19;129582;-44
2022/11/23 01:22:14;;;;;;;3.58;0.90;;;;;;;18.73;40.61;99524.81;16125816;19;129506;-46
2022/11/23 01:27:36;;;;;;;1.67;0.52;;;;;;;18.71;40.64;99535.34;16126335;19;129683;-41
2022/11/23 01:32:58;;;;;;;1.13;0.43;;;;;;;18.70;40.68;99535.63;16124194;19;129604;-42
2022/11/23 01:38:19;;;;;;;1.60;0.43;;;;;;;18.68;40.80;99544.22;16123614;19;129929;-41
2022/11/23 01:43:42;;;;;;;1.20;0.40;;;;;;;18.67;40.77;99545.34;16126251;19;129603;-43
2022/11/23 01:49:06;;;;;;;2.15;0.70;;;;;;;18.66;40.65;99546.44;16120354;19;129499;-42
2022/11/23 01:54:36;;;;;;;1.98;0.60;;;;;;;18.65;40.69;99549.47;16122922;19;130057;-41
2022/11/23 01:59:58;;;;;;;2.88;0.90;;;;;;;18.63;40.67;99557.25;16121457;19;129451;-43
2022/11/23 02:05:24;;;;;;;1.45;0.65;;;;;;;18.61;40.62;99554.75;16120063;19;130413;-41
2022/11/23 02:10:47;;;;;;;1.77;0.55;;;;;;;18.60;41.15;99548.41;16118798;19;129664;-41
2022/11/23 02:16:09;;;;;;;2.78;0.60;;;;;;;18.58;41.15;99561.69;16120881;19;129628;-41
2022/11/23 02:21:31;;;;;;;1.73;0.57;;;;;;;18.57;40.97;99561.97;16120788;19;129398;-48
2022/11/23 02:26:53;;;;;;;1.27;0.50;;;;;;;18.56;41.06;99568.63;16112520;19;129763;-46
2022/11/23 02:32:22;;;;;;;2.60;0.60;;;;;;;18.55;41.13;99566.97;16116755;19;129296;-50
2022/11/23 02:37:44;;;;;;;1.67;0.40;;;;;;;18.53;40.64;99563.63;16118983;19;129535;-49
2022/11/23 02:43:06;;;;;;;1.40;0.30;;;;;;;18.51;40.92;99561.16;16118448;19;129433;-43
2022/11/23 02:48:27;;;;;;;1.42;0.47;;;;;;;18.51;40.73;99571.38;16117287;19;129402;-41
2022/11/23 02:53:49;;;;;;;0.88;0.40;;;;;;;18.49;40.74;99568.06;16120235;19;130532;-41
2022/11/23 02:59:11;;;;;;;0.98;0.40;;;;;;;18.48;40.76;99569.16;16119065;19;129232;-43
2022/11/23 03:04:33;;;;;;;1.73;0.40;;;;;;;18.47;41.19;99573.88;16117944;19;129510;-41
2022/11/23 03:09:54;;;;;;;2.45;0.88;;;;;;;18.45;40.76;99557.56;16117394;19;129360;-43
2022/11/23 03:15:16;;;;;;;1.63;0.63;;;;;;;18.45;41.16;99562.25;16114039;19;129500;-41
2022/11/23 03:20:38;;;;;;;2.63;0.63;;;;;;;18.44;40.83;99571.66;16127379;19;129608;-41
2022/11/23 03:26:00;;;;;;;1.42;0.50;;;;;;;18.42;41.04;99573.88;16132753;19;129717;-42
2022/11/23 03:31:21;;;;;;;2.05;0.60;;;;;;;18.42;41.10;99579.41;16132125;19;131155;-43
2022/11/23 03:36:43;;;;;;;1.88;0.50;;;;;;;18.40;41.26;99576.94;16130073;19;129641;-42
2022/11/23 03:42:05;;;;;;;3.03;0.70;;;;;;;18.40;41.04;99582.47;16130667;19;129960;-43
2022/11/23 03:47:27;;;;;;;1.05;0.55;;;;;;;18.38;41.28;99579.13;16127977;19;131077;-43
2022/11/23 03:52:49;;;;;;;0.95;0.60;;;;;;;18.38;41.00;99576.34;16129488;19;130390;-43
2022/11/23 03:58:10;;;;;;;1.15;0.43;;;;;;;18.37;41.35;99582.19;16129398;19;129767;-41
2022/11/23 04:03:32;;;;;;;1.10;0.40;;;;;;;18.36;41.15;99577.75;16131938;19;129485;-45
2022/11/23 04:08:55;;;;;;;2.03;0.57;;;;;;;18.35;41.00;99578.84;16129557;19;129413;-41
2022/11/23 04:14:22;;;;;;;1.20;0.40;;;;;;;18.35;41.00;99573.31;16127684;19;129489;-42
2022/11/23 04:19:44;;;;;;;1.88;0.35;;;;;;;18.33;41.37;99579.13;16128091;19;130266;-41
2022/11/23 04:25:06;;;;;;;1.15;0.30;;;;;;;18.31;41.13;99578.59;16127462;19;129681;-43
2022/11/23 04:30:28;;;;;;;1.40;0.30;;;;;;;18.31;41.34;99573.84;16124578;19;129642;-42
2022/11/23 04:35:49;;;;;;;0.80;0.50;;;;;;;18.29;40.95;99569.72;16126678;19;129335;-42
2022/11/23 04:41:11;;;;;;;2.08;0.60;;;;;;;18.29;41.28;99578.03;16127082;19;129286;-41
2022/11/23 04:46:34;;;;;;;0.90;0.35;;;;;;;18.27;41.21;99567.22;16127622;19;129569;-42
2022/11/23 04:51:56;;;;;;;1.98;0.50;;;;;;;18.28;40.79;99573.59;16125740;19;129418;-41
2022/11/23 04:57:18;;;;;;;0.88;0.38;;;;;;;18.24;41.10;99565.00;16126936;19;129727;-42
2022/11/23 05:02:39;;;;;;;2.25;0.43;;;;;;;18.24;40.95;99566.94;16124461;19;130478;-42
2022/11/23 05:08:01;;;;;;;0.95;0.32;;;;;;;18.23;41.37;99565.28;16127046;19;129409;-42
2022/11/23 05:13:23;;;;;;;1.73;0.65;;;;;;;18.23;41.15;99565.28;16124254;19;129299;-44
2022/11/23 05:18:45;;;;;;;0.75;0.30;;;;;;;18.22;41.21;99552.53;16127383;19;131016;-43
2022/11/23 05:24:07;;;;;;;1.15;0.50;;;;;;;18.20;41.33;99560.31;16122105;19;131329;-43
2022/11/23 05:29:28;;;;;;;2.88;0.52;;;;;;;18.20;41.08;99563.06;16123846;19;129965;-42
2022/11/23 05:34:51;;;;;;;1.65;0.50;;;;;;;18.18;41.47;99556.97;16122208;19;130298;-41
2022/11/23 05:40:12;;;;;;;1.33;0.40;;;;;;;18.17;41.20;99558.09;16121806;19;130189;-40
2022/11/23 05:45:34;;;;;;;0.85;0.50;;;;;;;18.17;41.40;99564.44;16120963;19;130091;-43
2022/11/23 05:50:56;;;;;;;1.13;0.40;;;;;;;18.16;41.21;99568.31;16123719;19;129845;-41
2022/11/23 05:56:25;;;;;;;1.58;0.50;;;;;;;18.17;41.17;99563.63;16119442;19;129646;-42
2022/11/23 06:01:47;;;;;;;0.55;0.35;;;;;;;18.15;41.49;99558.38;16121085;19;129348;-43
2022/11/23 06:07:09;;;;;;;1.00;0.40;;;;;;;18.18;41.05;99560.56;16121504;19;129948;-42
2022/11/23 06:12:31;;;;;;;0.35;0.30;;;;;;;18.48;41.14;99577.47;16118938;19;129087;-42
2022/11/23 06:17:52;;;;;;;1.63;0.40;;;;;;;18.77;40.71;99570.25;16120952;19;129370;-42
2022/11/23 06:23:15;;;;;;;1.38;0.60;;;;;;;19.00;40.28;99576.28;16120450;19;129471;-42
2022/11/23 06:28:37;;;;;;;1.40;0.60;;;;;;;19.14;39.88;99578.44;16122671;19;131147;-42
2022/11/23 06:33:58;;;;;;;1.00;0.35;;;;;;;19.21;40.01;99576.22;16120909;19;129348;-41
2022/11/23 06:39:20;;;;;;;3.30;0.55;;;;;;;19.24;39.81;99572.06;16123605;19;129787;-42
2022/11/23 06:44:42;;;;;;;1.17;0.30;;;;;;;19.22;39.83;99570.41;16121968;19;130595;-41
2022/11/23 06:50:04;;;;;;;2.60;0.47;;;;;;;19.19;39.64;99581.22;16120649;19;130243;-44
2022/11/23 06:55:26;;;;;;;2.33;0.55;;;;;;;19.13;40.12;99585.94;16128175;19;129870;-42
2022/11/23 07:00:48;;;;;;;1.35;0.50;;;;;;;19.07;40.20;99598.16;16133122;19;129545;-44
2022/11/23 07:06:10;;;;;;;2.08;0.50;;;;;;;19.01;39.81;99597.34;16132966;19;129374;-41
2022/11/23 07:11:32;;;;;;;5.28;0.60;;;;;;;18.95;40.41;99597.63;16131748;19;131871;-44
2022/11/23 07:16:53;;;;;;;2.83;0.70;;;;;;;18.88;40.08;99609.00;16132687;19;129430;-41
2022/11/23 07:22:16;;;;;;;5.95;0.70;;;;;;;18.84;40.14;99619.81;16130820;19;129397;-40
2022/11/23 07:27:37;;;;;;;3.88;0.70;;;;;;;19.01;40.13;99619.50;16131166;19;130187;-42
2022/11/23 07:33:01;;;;;;;3.35;0.52;;;;;;;19.31;39.40;99628.03;16131756;19;129564;-43
2022/11/23 07:38:23;;;;;;;1.48;0.60;;;;;;;19.58;39.07;99638.75;16132582;19;129607;-40
2022/11/23 07:43:44;;;;;;;4.03;0.90;;;;;;;19.94;38.54;99646.88;16127499;19;129718;-41
2022/11/23 07:49:06;;;;;;;2.70;0.47;;;;;;;20.14;38.27;99651.53;16131996;19;129099;-42
2022/11/23 07:54:28;;;;;;;1.38;0.70;;;;;;;19.93;38.45;99661.06;16127328;19;129671;-41
2022/11/23 07:59:49;;;;;;;3.95;0.73;;;;;;;19.56;38.86;99673.44;16128912;19;129760;-41
2022/11/23 08:05:12;;;;;;;5.70;0.80;;;;;;;19.31;39.40;99670.50;16124039;19;130167;-43
2022/11/23 08:10:34;;;;;;;2.47;0.90;;;;;;;19.14;39.28;99678.25;16127687;19;129358;-41
2022/11/23 08:16:04;;;;;;;7.00;0.90;;;;;;;19.02;39.43;99661.91;16129076;19;129723;-41
2022/11/23 08:21:25;;;;;;;7.88;1.50;;;;;;;18.92;39.75;99671.09;16125556;19;130166;-41
2022/11/23 08:26:47;;;;;;;6.03;1.25;;;;;;;18.90;38.64;99676.06;16126827;19;130490;-41
2022/11/23 08:32:11;;;;;;;6.43;1.63;;;;;;;19.03;38.35;99678.28;16125795;19;129864;-40
2022/11/23 08:37:32;;;;;;;5.07;1.17;;;;;;;19.24;38.00;99669.94;16120467;19;130419;-43
2022/11/23 08:42:54;;;;;;;6.40;1.50;;;;;;;19.45;37.56;99678.19;16116672;19;129527;-42
2022/11/23 08:48:16;;;;;;;7.80;1.35;;;;;;;19.61;37.20;99685.34;16115011;19;130298;-47
2022/11/23 08:53:38;;;;;;;4.25;1.20;;;;;;;19.76;37.07;99686.41;16125543;19;129505;-42
2022/11/23 08:58:59;;;;;;;8.48;1.65;;;;;;;19.90;37.28;99673.56;16125621;19;130389;-42
2022/11/23 09:04:21;;;;;;;5.07;1.30;;;;;;;20.02;37.10;99664.09;16124700;19;129774;-45
2022/11/23 09:09:43;;;;;;;5.97;1.38;;;;;;;20.04;37.19;99640.47;16116586;19;130873;-42
2022/11/23 09:15:05;;;;;;;6.18;1.60;;;;;;;20.05;36.92;99608.84;16125512;19;129462;-42
2022/11/23 09:20:27;;;;;;;5.55;1.02;;;;;;;20.01;37.06;99618.84;16125549;19;129461;-41
2022/11/23 09:25:49;;;;;;;3.05;1.00;;;;;;;19.93;36.95;99606.41;16126887;19;129494;-43
2022/11/23 09:31:11;;;;;;;4.40;1.15;;;;;;;19.86;37.08;99585.63;16122077;19;129775;-42
2022/11/23 09:36:32;;;;;;;6.80;1.25;;;;;;;19.79;37.19;99599.81;16122320;19;129214;-41
2022/11/23 09:42:19;;;;;;;3.60;1.10;;;;;;;19.71;37.26;99603.19;16118282;19;129365;-41
2022/11/23 09:48:15;;;;;;;4.30;0.85;;;;;;;19.57;37.75;99603.78;16123625;19;129397;-41
2022/11/23 09:54:03;;;;;;;3.58;1.17;;;;;;;19.50;37.87;99603.28;16118045;19;131540;-47
2022/11/23 09:59:59;;;;;;;6.32;1.20;;;;;;;19.41;37.57;99602.22;16120457;19;129692;-43
2022/11/23 10:05:30;;;;;;;4.27;1.10;;;;;;;19.34;38.05;99603.34;16120718;19;130165;-40
2022/11/23 10:11:19;;;;;;;9.10;1.35;;;;;;;19.28;38.22;99598.94;16120880;19;129438;-44
2022/11/23 10:17:15;;;;;;;5.07;1.20;;;;;;;19.22;38.19;99591.75;16121261;19;130822;-43
2022/11/23 10:22:57;;;;;;;6.05;1.33;;;;;;;19.17;38.28;99583.44;16117714;19;134202;-44
2022/11/23 10:28:21;;;;;;;7.25;1.77;;;;;;;19.11;38.06;99563.22;16115997;19;129589;-41
2022/11/23 10:33:54;;;;;;;9.07;1.30;;;;;;;19.06;38.28;99561.31;16116698;19;129479;-43
2022/11/23 10:39:24;;;;;;;8.27;1.65;;;;;;;19.02;38.43;99560.19;16117910;19;129960;-41
2022/11/23 10:44:49;;;;;;;13.88;1.80;;;;;;;18.99;37.96;99538.59;16118417;19;129749;-42
2022/11/23 10:50:35;;;;;;;6.30;1.10;;;;;;;18.98;38.17;99534.16;16114336;19;129068;-48
2022/11/23 10:56:00;;;;;;;3.55;1.13;;;;;;;18.95;38.17;99518.09;16117083;19;129570;-40
2022/11/23 11:01:24;;;;;;;5.65;1.25;;;;;;;18.89;38.56;99500.63;16117679;19;131223;-41
2022/11/23 11:06:46;;;;;;;7.57;1.27;;;;;;;18.86;38.64;99489.31;16116889;19;129476;-44
2022/11/23 11:12:16;;;;;;;4.10;0.90;;;;;;;18.87;38.72;99485.41;16116434;19;129235;-42
2022/11/23 11:17:40;;;;;;;3.85;1.13;;;;;;;18.86;38.62;99475.44;16117629;19;130239;-41
2022/11/23 11:23:17;;;;;;;4.13;1.25;;;;;;;18.87;38.77;99471.56;16114619;19;134621;-40
2022/11/23 11:28:46;;;;;;;3.70;1.10;;;;;;;18.86;38.86;99467.13;16116259;19;130218;-40
2022/11/23 11:34:13;;;;;;;4.80;1.08;;;;;;;18.83;38.71;99467.72;16114965;19;129282;-42
2022/11/23 11:39:44;;;;;;;5.55;0.98;;;;;;;18.81;39.23;99464.41;16116112;19;129222;-40
2022/11/23 11:45:35;;;;;;;5.80;1.10;;;;;;;18.80;39.27;99446.13;16131142;19;130669;-42
2022/11/23 11:51:05;;;;;;;6.63;0.73;;;;;;;18.76;39.27;99427.28;16129885;19;134704;-42
2022/11/23 11:56:36;;;;;;;2.92;1.48;;;;;;;18.75;38.96;99417.31;16127572;19;131840;-40
2022/11/23 12:02:16;;;;;;;2.85;0.95;;;;;;;18.75;39.40;99402.66;16127695;19;129211;-43
2022/11/23 12:08:15;;;;;;;4.78;0.90;;;;;;;18.74;39.62;99403.75;16129394;19;129908;-42
2022/11/23 12:13:41;;;;;;;5.28;1.13;;;;;;;18.68;39.54;99400.19;16128326;19;129711;-43
2022/11/23 12:19:12;;;;;;;3.47;0.82;;;;;;;18.67;39.63;99397.69;16127368;19;129675;-51
2022/11/23 12:24:55;;;;;;;4.53;0.77;;;;;;;18.65;39.79;99388.81;16127183;19;129486;-50
2022/11/23 12:30:29;;;;;;;2.45;0.93;;;;;;;18.61;39.45;99383.03;16126952;19;129474;-46
2022/11/23 12:36:10;;;;;;;2.42;0.70;;;;;;;18.59;39.60;99375.00;16127951;19;129829;-50
2022/11/23 12:42:06;;;;;;;2.97;0.80;;;;;;;18.56;39.77;99391.38;16127527;19;129637;-47
2022/11/23 12:47:34;;;;;;;1.60;0.53;;;;;;;18.57;39.76;99398.56;16122332;19;129576;-40
2022/11/23 12:53:08;;;;;;;2.25;0.40;;;;;;;18.67;39.41;99426.22;16118788;19;129569;-45
2022/11/23 12:58:32;;;;;;;5.07;0.95;;;;;;;18.75;39.48;99419.28;16112584;19;129788;-41
2022/11/23 13:04:23;;;;;;;2.45;0.52;;;;;;;18.85;39.39;99435.84;16119866;19;129338;-43
2022/11/23 13:10:37;;;;;;;2.35;0.60;;;;;;;18.96;39.00;99439.38;16115522;19;129194;-48
2022/11/23 13:15:59;;;;;;;3.45;0.50;;;;;;;19.04;39.17;99447.09;16114865;19;130077;-49
2022/11/23 13:21:32;;;;;;;1.77;0.60;;;;;;;19.14;39.30;99453.69;16115859;19;129855;-49
2022/11/23 13:27:12;;;;;;;5.50;0.65;;;;;;;19.22;39.18;99469.75;16112955;19;129625;-48
2022/11/23 13:32:37;;;;;;;2.63;0.57;;;;;;;19.30;39.11;99483.03;16113619;19;129957;-51
2022/11/23 13:38:25;;;;;;;3.53;0.60;;;;;;;19.37;38.79;99494.63;16113528;19;129828;-48
2022/11/23 13:43:47;;;;;;;2.42;0.52;;;;;;;19.37;38.67;99502.94;16114301;19;129863;-40
2022/11/23 13:49:33;;;;;;;4.63;0.88;;;;;;;19.37;38.85;99486.31;16115237;19;129640;-40
2022/11/23 13:55:09;;;;;;;1.33;0.70;;;;;;;19.31;39.19;99484.69;16121899;19;129408;-39
2022/11/23 14:00:43;;;;;;;2.75;0.52;;;;;;;19.25;38.84;99480.28;16119190;19;129537;-41
2022/11/23 14:06:10;;;;;;;2.42;0.65;;;;;;;19.18;39.35;99497.19;16119509;19;129546;-39
2022/11/23 14:11:41;;;;;;;2.63;0.40;;;;;;;19.13;39.17;99511.09;16120274;19;129631;-40
2022/11/23 14:17:37;;;;;;;4.38;0.50;;;;;;;19.19;39.61;99509.13;16119494;19;130497;-43
2022/11/23 14:23:17;;;;;;;3.58;0.60;;;;;;;19.24;39.18;99522.97;16118994;19;129399;-41
2022/11/23 14:28:49;;;;;;;3.30;0.40;;;;;;;19.42;39.36;99529.00;16120141;19;129478;-40
2022/11/23 14:34:45;;;;;;;3.50;0.50;;;;;;;19.67;38.86;99545.50;16116671;19;129966;-40
2022/11/23 14:40:44;;;;;;;2.78;0.40;;;;;;;19.93;38.94;99542.56;16119939;19;129452;-40
2022/11/23 14:46:32;;;;;;;1.40;0.55;;;;;;;20.13;38.71;99552.69;16119753;19;130346;-40
2022/11/23 14:51:54;;;;;;;2.47;0.60;;;;;;;20.25;38.35;99524.53;16119556;19;129144;-39
2022/11/23 14:57:19;;;;;;;1.23;0.40;;;;;;;20.28;38.10;99546.19;16118985;19;129335;-39
2022/11/23 15:02:42;;;;;;;2.92;0.30;;;;;;;20.22;38.10;99547.34;16118041;19;129381;-42
2022/11/23 15:08:09;;;;;;;3.63;0.40;;;;;;;20.14;38.27;99532.13;16117566;19;129833;-41
2022/11/23 15:13:44;;;;;;;3.05;0.43;;;;;;;20.05;38.57;99555.28;16115536;19;129485;-40
2022/11/23 15:19:26;;;;;;;3.20;0.30;;;;;;;19.93;38.91;99566.69;16132935;19;130674;-40
2022/11/23 15:24:49;;;;;;;2.03;0.45;;;;;;;19.80;38.75;99585.66;16131802;19;129416;-40
2022/11/23 15:30:25;;;;;;;4.00;0.77;;;;;;;19.73;38.91;99595.41;16128652;19;129573;-44
2022/11/23 15:35:49;;;;;;;6.88;0.50;;;;;;;19.62;39.28;99600.19;16127966;19;130305;-40
2022/11/23 15:41:11;;;;;;;3.58;0.70;;;;;;;19.53;39.97;99619.38;16128841;19;129685;-43
2022/11/23 15:46:36;;;;;;;2.60;0.50;;;;;;;19.44;40.16;99630.22;16130063;19;129818;-41
2022/11/23 15:52:00;;;;;;;2.47;0.30;;;;;;;19.37;40.38;99633.28;16129684;19;129309;-42
2022/11/23 15:57:25;;;;;;;1.80;0.43;;;;;;;19.33;40.45;99648.81;16129428;19;129266;-40
2022/11/23 16:02:47;;;;;;;0.93;0.47;;;;;;;19.27;40.51;99658.28;16128820;19;129451;-40
2022/11/23 16:08:23;;;;;;;5.32;0.80;;;;;;;19.26;40.70;99670.50;16127809;19;129412;-40
2022/11/23 16:13:45;;;;;;;1.80;0.50;;;;;;;19.23;40.66;99676.59;16126527;19;129431;-40
2022/11/23 16:19:26;;;;;;;5.68;0.68;;;;;;;19.24;40.68;99683.81;16127335;19;129439;-39
2022/11/23 16:24:51;;;;;;;3.03;0.77;;;;;;;19.20;40.81;99691.00;16128828;19;129913;-44
2022/11/23 16:30:26;;;;;;;2.58;0.57;;;;;;;19.20;41.40;99704.88;16123759;19;129379;-39
2022/11/23 16:35:48;;;;;;;5.72;0.73;;;;;;;19.25;41.54;99713.19;16126622;19;129860;-40
2022/11/23 16:41:10;;;;;;;2.72;0.60;;;;;;;19.33;41.66;99709.84;16125460;19;129906;-39
2022/11/23 16:46:32;;;;;;;7.03;0.90;;;;;;;19.37;41.85;99722.03;16125831;19;132302;-39
2022/11/23 16:51:54;;;;;;;6.88;0.68;;;;;;;19.38;42.02;99737.56;16126870;19;129892;-43
2022/11/23 16:57:32;;;;;;;2.10;0.82;;;;;;;19.39;41.89;99749.47;16125321;19;129945;-40
2022/11/23 17:02:54;;;;;;;3.90;0.60;;;;;;;19.33;41.66;99762.53;16126588;19;129749;-42
2022/11/23 17:08:16;;;;;;;3.35;0.50;;;;;;;19.28;41.42;99762.56;16122964;19;130081;-39
2022/11/23 17:13:46;;;;;;;2.45;0.50;;;;;;;19.24;41.74;99775.31;16125426;19;130227;-40
2022/11/23 17:19:14;;;;;;;4.45;0.65;;;;;;;19.18;41.62;99785.53;16124485;19;129355;-42
2022/11/23 17:24:35;;;;;;;2.88;0.55;;;;;;;19.14;41.93;99787.19;16127648;19;130323;-39
2022/11/23 17:30:00;;;;;;;1.55;0.57;;;;;;;19.22;42.46;99799.69;16124960;19;129687;-40
2022/11/23 17:35:22;;;;;;;1.15;0.50;;;;;;;19.37;42.43;99819.09;16122928;19;132755;-40
2022/11/23 17:40:43;;;;;;;1.17;0.50;;;;;;;19.55;42.14;99827.97;16125906;19;129775;-40
2022/11/23 17:46:05;;;;;;;1.95;0.50;;;;;;;19.75;42.03;99826.28;16123907;19;129469;-43
2022/11/23 17:51:28;;;;;;;0.80;0.38;;;;;;;20.02;41.83;99836.22;16119478;19;129168;-39
2022/11/23 17:56:50;;;;;;;4.28;0.73;;;;;;;20.35;41.25;99845.81;16121060;19;130364;-47
2022/11/23 18:02:12;;;;;;;2.80;0.70;;;;;;;20.61;41.37;99859.59;16120740;19;129548;-42
2022/11/23 18:07:35;;;;;;;4.85;0.70;;;;;;;20.80;41.23;99862.56;16119987;19;129725;-43
2022/11/23 18:12:57;;;;;;;6.38;1.13;;;;;;;20.98;41.12;99874.13;16119905;19;130324;-43
2022/11/23 18:18:22;;;;;;;5.00;0.90;;;;;;;21.12;41.95;99880.72;16117401;19;131324;-45
2022/11/23 18:23:44;;;;;;;7.25;0.88;;;;;;;21.23;42.08;99887.03;16120739;19;129528;-43
2022/11/23 18:29:06;;;;;;;7.75;0.90;;;;;;;21.25;42.28;99883.97;16117609;19;130065;-43
2022/11/23 18:34:34;;;;;;;11.30;1.00;;;;;;;21.17;42.67;99883.44;16120819;19;130171;-43
2022/11/23 18:39:56;;;;;;;10.73;1.88;;;;;;;21.03;42.44;99899.13;16118607;19;130159;-44
2022/11/23 18:45:18;;;;;;;7.13;1.33;;;;;;;20.89;42.57;99899.78;16118247;19;129562;-45
2022/11/23 18:50:39;;;;;;;4.18;1.17;;;;;;;20.77;43.08;99904.00;16124064;19;129557;-43
2022/11/23 18:56:05;;;;;;;8.65;1.52;;;;;;;20.64;43.63;99922.91;16137398;19;128956;-43
2022/11/23 19:01:27;;;;;;;14.18;1.73;;;;;;;20.52;43.73;99934.38;16131287;19;129318;-42
2022/11/23 19:06:49;;;;;;;13.82;1.58;;;;;;;20.42;44.48;99946.34;16131364;19;130485;-42
2022/11/23 19:12:11;;;;;;;14.50;1.77;;;;;;;20.33;44.88;99948.06;16129745;19;129780;-43
2022/11/23 19:17:33;;;;;;;11.23;1.65;;;;;;;20.25;45.41;99960.56;16130636;19;129862;-42
2022/11/23 19:22:55;;;;;;;12.35;1.75;;;;;;;20.16;45.66;99953.91;16131961;19;129768;-43
2022/11/23 19:28:17;;;;;;;8.52;1.35;;;;;;;20.10;45.25;99966.13;16131791;19;135072;-43
2022/11/23 19:33:38;;;;;;;9.50;1.75;;;;;;;20.05;46.11;99971.72;16132335;19;129215;-44
2022/11/23 19:39:02;;;;;;;13.07;1.90;;;;;;;20.05;46.27;99980.03;16132404;19;130142;-42
2022/11/23 19:44:24;;;;;;;8.15;1.50;;;;;;;20.15;46.79;99996.69;16129881;19;128979;-42
2022/11/23 19:49:45;;;;;;;9.32;2.08;;;;;;;20.29;46.98;99992.22;16129647;19;129671;-43
2022/11/23 19:55:07;;;;;;;9.60;1.52;;;;;;;20.45;47.00;100006.06;16129001;19;130728;-43
2022/11/23 20:00:29;;;;;;;7.82;1.80;;;;;;;20.57;47.22;100011.31;16126068;19;129533;-42
2022/11/23 20:05:59;;;;;;;8.63;1.40;;;;;;;20.65;47.35;100015.47;16129367;19;129897;-46
2022/11/23 20:11:21;;;;;;;13.93;1.67;;;;;;;20.65;47.16;100024.63;16129664;19;129465;-42
2022/11/23 20:16:43;;;;;;;8.43;1.63;;;;;;;20.60;47.10;100031.03;16131109;19;129297;-42
2022/11/23 20:22:05;;;;;;;6.28;1.33;;;;;;;20.54;47.69;100037.75;16129862;19;129595;-41
2022/11/23 20:27:26;;;;;;;4.55;1.95;;;;;;;20.47;47.58;100042.72;16128587;19;129521;-42
2022/11/23 20:32:48;;;;;;;6.32;1.60;;;;;;;20.40;47.59;100047.75;16128340;19;129667;-41
2022/11/23 20:38:13;;;;;;;7.22;2.10;;;;;;;20.32;47.81;100051.94;16127707;19;129415;-41
2022/11/23 20:43:35;;;;;;;9.65;2.03;;;;;;;20.24;48.34;100056.09;16127093;19;130152;-43
2022/11/23 20:48:57;;;;;;;7.18;1.50;;;;;;;20.16;47.61;100062.22;16125855;19;129952;-43
2022/11/23 20:54:18;;;;;;;6.18;1.50;;;;;;;20.10;47.92;100069.72;16126486;19;129635;-42
2022/11/23 20:59:40;;;;;;;11.90;1.38;;;;;;;20.04;48.06;100081.09;16126774;19;129583;-43
2022/11/23 21:05:02;;;;;;;18.52;2.00;;;;;;;19.99;48.22;100082.75;16123175;19;131699;-42
2022/11/23 21:16:05;;;;;;;9.80;1.60;;;;;;;19.93;48.04;100094.94;16124909;19;129493;-43
2022/11/23 21:21:28;;;;;;;6.70;1.73;;;;;;;19.90;47.90;100101.03;16121896;19;129799;-42
2022/11/23 21:26:50;;;;;;;15.57;1.70;;;;;;;19.87;47.74;100112.69;16120297;19;129880;-42
2022/11/23 21:32:15;;;;;;;8.77;1.35;;;;;;;19.85;47.92;100114.91;16122811;19;132998;-41
2022/11/23 21:37:37;;;;;;;20.00;2.30;;;;;;;19.82;47.74;100126.53;16124189;19;134162;-43
2022/11/23 21:42:58;;;;;;;14.48;2.13;;;;;;;19.76;47.45;100124.88;16121444;19;129454;-42
2022/11/23 21:48:20;;;;;;;9.13;2.08;;;;;;;19.71;47.45;100130.41;16119932;19;129553;-43
2022/11/23 21:53:42;;;;;;;15.93;2.28;;;;;;;19.65;47.43;100137.88;16121868;19;131209;-43
2022/11/23 21:59:04;;;;;;;13.43;1.80;;;;;;;19.61;47.64;100142.31;16118586;19;129541;-43
2022/11/23 22:04:26;;;;;;;14.75;1.77;;;;;;;19.56;47.66;100145.91;16116926;19;129339;-42
2022/11/23 22:09:47;;;;;;;8.55;1.58;;;;;;;19.51;47.46;100154.19;16119150;19;129636;-43
2022/11/23 22:15:11;;;;;;;7.75;1.33;;;;;;;19.45;47.42;100171.91;16117474;19;129577;-45
2022/11/23 22:20:33;;;;;;;10.43;1.63;;;;;;;19.41;47.23;100168.03;16117355;19;130807;-45
2022/11/23 22:26:03;;;;;;;10.45;1.63;;;;;;;19.36;47.39;100169.66;16113903;19;129841;-44
2022/11/23 22:31:26;;;;;;;5.38;1.13;;;;;;;19.32;47.57;100193.50;16118570;19;129722;-45
2022/11/23 22:36:50;;;;;;;6.90;1.65;;;;;;;19.27;47.57;100195.41;16118387;19;128890;-50
2022/11/23 22:42:13;;;;;;;7.32;1.75;;;;;;;19.22;47.82;100196.22;16117096;19;129656;-51
2022/11/23 22:47:35;;;;;;;6.40;1.50;;;;;;;19.18;47.48;100206.97;16118511;19;129797;-51
2022/11/23 22:52:57;;;;;;;5.97;1.20;;;;;;;19.15;47.71;100218.59;16117377;19;131066;-45
2022/11/23 22:58:19;;;;;;;6.38;1.42;;;;;;;19.13;47.57;100209.72;16115928;19;130205;-42
2022/11/23 23:03:41;;;;;;;4.60;1.48;;;;;;;19.10;47.32;100203.88;16115999;19;129375;-44
2022/11/23 23:09:05;;;;;;;5.95;1.70;;;;;;;19.06;47.58;100209.97;16116615;19;129590;-41
2022/11/23 23:14:27;;;;;;;7.15;1.38;;;;;;;19.04;47.68;100214.94;16111203;19;132454;-42
2022/11/23 23:19:48;;;;;;;3.38;1.10;;;;;;;19.02;47.43;100219.91;16108681;19;129473;-44
2022/11/23 23:25:10;;;;;;;5.30;1.10;;;;;;;18.99;47.20;100220.44;16105725;19;130091;-41
2022/11/23 23:30:32;;;;;;;6.45;1.67;;;;;;;18.97;47.16;100230.94;16116842;19;129843;-42
2022/11/23 23:36:06;;;;;;;4.32;1.02;;;;;;;18.95;47.49;100224.84;16121994;19;130942;-42
2022/11/23 23:41:28;;;;;;;5.10;1.25;;;;;;;18.91;47.09;100234.78;16130381;19;130070;-42
2022/11/23 23:46:49;;;;;;;2.15;0.90;;;;;;;18.88;47.44;100227.84;16130258;19;130143;-44
2022/11/23 23:52:11;;;;;;;6.10;1.15;;;;;;;18.86;47.15;100237.50;16130373;19;130850;-42
2022/11/23 23:57:33;;;;;;;2.78;0.90;;;;;;;18.84;47.01;100232.25;16133397;19;132740;-42
